sensor_id;sensor_type;location;lat;lon;timestamp;P1;durP1;ratioP1;P2;durP2;ratioP2
17365;SDS011;8800;50.118;9.900;2023-07-22T00:01:48;7.70;;;2.50;;
17365;SDS011;8800;50.118;9.900;2023-07-22T00:04:14;5.25;;;2.33;;
17365;SDS011;8800;50.118;9.900;2023-07-22T00:06:41;4.05;;;2.60;;
17365;SDS011;8800;50.118;9.900;2023-07-22T00:09:07;5.28;;;2.65;;
17365;SDS011;8800;50.118;9.900;2023-07-22T00:11:34;6.80;;;2.55;;
17365;SDS011;8800;50.118;9.900;2023-07-22T00:14:02;5.07;;;2.97;;
17365;SDS011;8800;50.118;9.900;2023-07-22T00:16:31;5.65;;;2.70;;
17365;SDS011;8800;50.118;9.900;2023-07-22T00:18:58;4.70;;;3.10;;
17365;SDS011;8800;50.118;9.900;2023-07-22T00:21:24;4.20;;;2.55;;
17365;SDS011;8800;50.118;9.900;2023-07-22T00:23:51;5.55;;;3.20;;
17365;SDS011;8800;50.118;9.900;2023-07-22T00:26:17;4.97;;;2.80;;
17365;SDS011;8800;50.118;9.900;2023-07-22T00:28:44;10.05;;;2.70;;
17365;SDS011;8800;50.118;9.900;2023-07-22T00:31:11;5.82;;;2.78;;
17365;SDS011;8800;50.118;9.900;2023-07-22T00:33:38;5.22;;;2.63;;
17365;SDS011;8800;50.118;9.900;2023-07-22T00:36:04;6.07;;;2.33;;
17365;SDS011;8800;50.118;9.900;2023-07-22T00:38:31;4.22;;;2.40;;
17365;SDS011;8800;50.118;9.900;2023-07-22T00:40:57;5.13;;;2.78;;
17365;SDS011;8800;50.118;9.900;2023-07-22T00:43:23;4.47;;;2.90;;
17365;SDS011;8800;50.118;9.900;2023-07-22T00:45:50;3.38;;;2.63;;
17365;SDS011;8800;50.118;9.900;2023-07-22T00:48:18;4.30;;;2.72;;
17365;SDS011;8800;50.118;9.900;2023-07-22T00:50:45;3.22;;;2.40;;
17365;SDS011;8800;50.118;9.900;2023-07-22T00:53:11;2.65;;;2.17;;
17365;SDS011;8800;50.118;9.900;2023-07-22T00:55:38;3.15;;;2.60;;
17365;SDS011;8800;50.118;9.900;2023-07-22T00:58:05;8.13;;;2.40;;
17365;SDS011;8800;50.118;9.900;2023-07-22T01:00:33;5.95;;;2.60;;
17365;SDS011;8800;50.118;9.900;2023-07-22T01:02:59;3.10;;;2.42;;
17365;SDS011;8800;50.118;9.900;2023-07-22T01:05:27;4.30;;;2.58;;
17365;SDS011;8800;50.118;9.900;2023-07-22T01:07:53;4.95;;;2.70;;
17365;SDS011;8800;50.118;9.900;2023-07-22T01:10:21;4.20;;;2.67;;
17365;SDS011;8800;50.118;9.900;2023-07-22T01:12:47;5.15;;;2.72;;
17365;SDS011;8800;50.118;9.900;2023-07-22T01:15:14;7.68;;;2.90;;
17365;SDS011;8800;50.118;9.900;2023-07-22T01:17:40;4.10;;;3.08;;
17365;SDS011;8800;50.118;9.900;2023-07-22T01:20:07;5.88;;;2.67;;
17365;SDS011;8800;50.118;9.900;2023-07-22T01:22:36;8.20;;;2.90;;
17365;SDS011;8800;50.118;9.900;2023-07-22T01:25:05;3.47;;;2.50;;
17365;SDS011;8800;50.118;9.900;2023-07-22T01:27:32;8.63;;;2.78;;
17365;SDS011;8800;50.118;9.900;2023-07-22T01:29:58;4.30;;;2.40;;
17365;SDS011;8800;50.118;9.900;2023-07-22T01:32:27;3.92;;;2.60;;
17365;SDS011;8800;50.118;9.900;2023-07-22T01:34:53;3.35;;;2.55;;
17365;SDS011;8800;50.118;9.900;2023-07-22T01:37:22;8.77;;;3.10;;
17365;SDS011;8800;50.118;9.900;2023-07-22T01:39:49;5.80;;;2.90;;
17365;SDS011;8800;50.118;9.900;2023-07-22T01:42:17;7.05;;;3.00;;
17365;SDS011;8800;50.118;9.900;2023-07-22T01:44:44;5.32;;;2.80;;
17365;SDS011;8800;50.118;9.900;2023-07-22T01:47:11;7.18;;;3.90;;
17365;SDS011;8800;50.118;9.900;2023-07-22T01:49:37;5.55;;;3.47;;
17365;SDS011;8800;50.118;9.900;2023-07-22T01:52:04;6.60;;;2.95;;
17365;SDS011;8800;50.118;9.900;2023-07-22T01:54:31;4.88;;;3.00;;
17365;SDS011;8800;50.118;9.900;2023-07-22T01:56:58;6.50;;;2.90;;
17365;SDS011;8800;50.118;9.900;2023-07-22T01:59:26;5.25;;;2.72;;
17365;SDS011;8800;50.118;9.900;2023-07-22T02:01:53;3.85;;;2.75;;
17365;SDS011;8800;50.118;9.900;2023-07-22T02:04:20;4.80;;;2.42;;
17365;SDS011;8800;50.118;9.900;2023-07-22T02:06:47;4.65;;;2.75;;
17365;SDS011;8800;50.118;9.900;2023-07-22T02:09:14;4.75;;;2.97;;
17365;SDS011;8800;50.118;9.900;2023-07-22T02:11:41;4.22;;;2.83;;
17365;SDS011;8800;50.118;9.900;2023-07-22T02:14:08;6.20;;;3.35;;
17365;SDS011;8800;50.118;9.900;2023-07-22T02:16:38;4.78;;;3.30;;
17365;SDS011;8800;50.118;9.900;2023-07-22T02:19:04;3.88;;;3.03;;
17365;SDS011;8800;50.118;9.900;2023-07-22T02:21:37;7.63;;;2.67;;
17365;SDS011;8800;50.118;9.900;2023-07-22T02:24:04;3.80;;;2.90;;
17365;SDS011;8800;50.118;9.900;2023-07-22T02:26:32;5.80;;;3.00;;
17365;SDS011;8800;50.118;9.900;2023-07-22T02:28:58;5.03;;;3.10;;
17365;SDS011;8800;50.118;9.900;2023-07-22T02:31:25;4.03;;;3.10;;
17365;SDS011;8800;50.118;9.900;2023-07-22T02:33:53;5.22;;;3.10;;
17365;SDS011;8800;50.118;9.900;2023-07-22T02:36:19;7.53;;;3.08;;
17365;SDS011;8800;50.118;9.900;2023-07-22T02:38:46;3.90;;;2.95;;
17365;SDS011;8800;50.118;9.900;2023-07-22T02:41:12;6.75;;;3.28;;
17365;SDS011;8800;50.118;9.900;2023-07-22T02:43:38;3.50;;;2.90;;
17365;SDS011;8800;50.118;9.900;2023-07-22T02:46:05;6.93;;;3.28;;
17365;SDS011;8800;50.118;9.900;2023-07-22T02:48:32;3.92;;;3.20;;
17365;SDS011;8800;50.118;9.900;2023-07-22T02:51:03;5.88;;;3.13;;
17365;SDS011;8800;50.118;9.900;2023-07-22T02:53:30;7.03;;;3.13;;
17365;SDS011;8800;50.118;9.900;2023-07-22T02:55:56;6.63;;;3.25;;
17365;SDS011;8800;50.118;9.900;2023-07-22T02:58:22;5.15;;;2.70;;
17365;SDS011;8800;50.118;9.900;2023-07-22T03:00:49;9.48;;;3.30;;
17365;SDS011;8800;50.118;9.900;2023-07-22T03:03:15;6.85;;;3.17;;
17365;SDS011;8800;50.118;9.900;2023-07-22T03:05:44;6.05;;;3.05;;
17365;SDS011;8800;50.118;9.900;2023-07-22T03:08:12;5.22;;;3.17;;
17365;SDS011;8800;50.118;9.900;2023-07-22T03:10:38;7.45;;;3.38;;
17365;SDS011;8800;50.118;9.900;2023-07-22T03:13:04;10.18;;;3.20;;
17365;SDS011;8800;50.118;9.900;2023-07-22T03:15:34;11.15;;;3.65;;
17365;SDS011;8800;50.118;9.900;2023-07-22T03:18:01;7.13;;;3.15;;
17365;SDS011;8800;50.118;9.900;2023-07-22T03:20:27;6.82;;;3.03;;
17365;SDS011;8800;50.118;9.900;2023-07-22T03:22:54;8.52;;;3.17;;
17365;SDS011;8800;50.118;9.900;2023-07-22T03:25:22;9.10;;;3.05;;
17365;SDS011;8800;50.118;9.900;2023-07-22T03:27:48;6.60;;;3.30;;
17365;SDS011;8800;50.118;9.900;2023-07-22T03:30:15;8.93;;;3.25;;
17365;SDS011;8800;50.118;9.900;2023-07-22T03:32:42;6.50;;;3.80;;
17365;SDS011;8800;50.118;9.900;2023-07-22T03:35:09;12.10;;;3.95;;
17365;SDS011;8800;50.118;9.900;2023-07-22T03:37:36;16.25;;;4.55;;
17365;SDS011;8800;50.118;9.900;2023-07-22T03:40:03;9.68;;;4.60;;
17365;SDS011;8800;50.118;9.900;2023-07-22T03:42:33;14.52;;;4.70;;
17365;SDS011;8800;50.118;9.900;2023-07-22T03:44:59;30.00;;;4.47;;
17365;SDS011;8800;50.118;9.900;2023-07-22T03:47:26;19.23;;;4.80;;
17365;SDS011;8800;50.118;9.900;2023-07-22T03:49:53;15.32;;;4.53;;
17365;SDS011;8800;50.118;9.900;2023-07-22T03:52:19;16.00;;;4.97;;
17365;SDS011;8800;50.118;9.900;2023-07-22T03:54:46;22.83;;;5.88;;
17365;SDS011;8800;50.118;9.900;2023-07-22T03:57:12;34.00;;;5.10;;
17365;SDS011;8800;50.118;9.900;2023-07-22T03:59:41;45.20;;;5.65;;
17365;SDS011;8800;50.118;9.900;2023-07-22T04:02:08;51.90;;;5.47;;
17365;SDS011;8800;50.118;9.900;2023-07-22T04:04:35;11.30;;;5.28;;
17365;SDS011;8800;50.118;9.900;2023-07-22T04:07:01;65.97;;;5.70;;
17365;SDS011;8800;50.118;9.900;2023-07-22T04:09:28;8.60;;;4.80;;
17365;SDS011;8800;50.118;9.900;2023-07-22T04:11:54;9.80;;;4.40;;
17365;SDS011;8800;50.118;9.900;2023-07-22T04:14:21;11.68;;;4.60;;
17365;SDS011;8800;50.118;9.900;2023-07-22T04:16:49;10.35;;;4.07;;
17365;SDS011;8800;50.118;9.900;2023-07-22T04:19:15;26.63;;;4.32;;
17365;SDS011;8800;50.118;9.900;2023-07-22T04:21:43;16.83;;;3.95;;
17365;SDS011;8800;50.118;9.900;2023-07-22T04:24:09;6.40;;;3.80;;
17365;SDS011;8800;50.118;9.900;2023-07-22T04:26:36;8.05;;;3.80;;
17365;SDS011;8800;50.118;9.900;2023-07-22T04:29:03;15.75;;;3.50;;
17365;SDS011;8800;50.118;9.900;2023-07-22T04:31:30;111.57;;;5.53;;
17365;SDS011;8800;50.118;9.900;2023-07-22T04:33:58;3.95;;;3.40;;
17365;SDS011;8800;50.118;9.900;2023-07-22T04:36:25;13.65;;;3.67;;
17365;SDS011;8800;50.118;9.900;2023-07-22T04:38:52;9.40;;;3.63;;
17365;SDS011;8800;50.118;9.900;2023-07-22T04:41:18;12.52;;;3.72;;
17365;SDS011;8800;50.118;9.900;2023-07-22T04:43:44;91.45;;;5.10;;
17365;SDS011;8800;50.118;9.900;2023-07-22T04:46:11;10.23;;;3.45;;
17365;SDS011;8800;50.118;9.900;2023-07-22T04:48:37;31.08;;;3.42;;
17365;SDS011;8800;50.118;9.900;2023-07-22T04:51:06;6.40;;;3.63;;
17365;SDS011;8800;50.118;9.900;2023-07-22T04:53:33;4.85;;;3.55;;
17365;SDS011;8800;50.118;9.900;2023-07-22T04:56:00;28.95;;;3.40;;
17365;SDS011;8800;50.118;9.900;2023-07-22T04:58:28;67.13;;;4.80;;
17365;SDS011;8800;50.118;9.900;2023-07-22T05:00:54;36.03;;;4.03;;
17365;SDS011;8800;50.118;9.900;2023-07-22T05:03:21;38.05;;;4.00;;
17365;SDS011;8800;50.118;9.900;2023-07-22T05:05:50;6.97;;;3.30;;
17365;SDS011;8800;50.118;9.900;2023-07-22T05:08:18;4.57;;;3.40;;
17365;SDS011;8800;50.118;9.900;2023-07-22T05:10:48;12.85;;;3.50;;
17365;SDS011;8800;50.118;9.900;2023-07-22T05:13:15;61.25;;;4.18;;
17365;SDS011;8800;50.118;9.900;2023-07-22T05:15:42;16.13;;;4.22;;
17365;SDS011;8800;50.118;9.900;2023-07-22T05:18:08;98.95;;;5.03;;
17365;SDS011;8800;50.118;9.900;2023-07-22T05:20:37;53.35;;;4.45;;
17365;SDS011;8800;50.118;9.900;2023-07-22T05:23:04;31.40;;;4.40;;
17365;SDS011;8800;50.118;9.900;2023-07-22T05:25:32;40.75;;;4.82;;
17365;SDS011;8800;50.118;9.900;2023-07-22T05:27:58;6.43;;;4.50;;
17365;SDS011;8800;50.118;9.900;2023-07-22T05:30:25;6.60;;;4.75;;
17365;SDS011;8800;50.118;9.900;2023-07-22T05:32:52;14.45;;;4.85;;
17365;SDS011;8800;50.118;9.900;2023-07-22T05:35:19;21.77;;;4.60;;
17365;SDS011;8800;50.118;9.900;2023-07-22T05:37:45;16.00;;;4.07;;
17365;SDS011;8800;50.118;9.900;2023-07-22T05:40:12;72.05;;;4.80;;
17365;SDS011;8800;50.118;9.900;2023-07-22T05:42:41;22.80;;;4.78;;
17365;SDS011;8800;50.118;9.900;2023-07-22T05:45:08;175.05;;;6.38;;
17365;SDS011;8800;50.118;9.900;2023-07-22T05:47:40;17.65;;;3.97;;
17365;SDS011;8800;50.118;9.900;2023-07-22T05:50:07;21.33;;;4.30;;
17365;SDS011;8800;50.118;9.900;2023-07-22T05:52:34;8.77;;;4.25;;
17365;SDS011;8800;50.118;9.900;2023-07-22T05:55:00;33.22;;;5.00;;
17365;SDS011;8800;50.118;9.900;2023-07-22T05:57:27;50.92;;;5.28;;
17365;SDS011;8800;50.118;9.900;2023-07-22T05:59:55;34.03;;;4.82;;
17365;SDS011;8800;50.118;9.900;2023-07-22T06:02:22;47.78;;;5.20;;
17365;SDS011;8800;50.118;9.900;2023-07-22T06:04:48;45.25;;;5.32;;
17365;SDS011;8800;50.118;9.900;2023-07-22T06:07:15;12.52;;;4.25;;
17365;SDS011;8800;50.118;9.900;2023-07-22T06:09:41;11.02;;;4.65;;
17365;SDS011;8800;50.118;9.900;2023-07-22T06:12:08;5.60;;;4.40;;
17365;SDS011;8800;50.118;9.900;2023-07-22T06:14:34;6.07;;;4.38;;
17365;SDS011;8800;50.118;9.900;2023-07-22T06:17:02;7.10;;;4.70;;
17365;SDS011;8800;50.118;9.900;2023-07-22T06:19:29;5.30;;;4.40;;
17365;SDS011;8800;50.118;9.900;2023-07-22T06:21:56;6.68;;;4.97;;
17365;SDS011;8800;50.118;9.900;2023-07-22T06:24:22;7.03;;;4.93;;
17365;SDS011;8800;50.118;9.900;2023-07-22T06:26:49;7.00;;;5.50;;
17365;SDS011;8800;50.118;9.900;2023-07-22T06:29:16;7.88;;;5.28;;
17365;SDS011;8800;50.118;9.900;2023-07-22T06:31:42;7.07;;;4.82;;
17365;SDS011;8800;50.118;9.900;2023-07-22T06:34:10;5.63;;;4.40;;
17365;SDS011;8800;50.118;9.900;2023-07-22T06:36:37;6.47;;;4.72;;
17365;SDS011;8800;50.118;9.900;2023-07-22T06:39:03;5.75;;;4.45;;
17365;SDS011;8800;50.118;9.900;2023-07-22T06:41:33;5.90;;;4.68;;
17365;SDS011;8800;50.118;9.900;2023-07-22T06:43:59;4.60;;;4.07;;
17365;SDS011;8800;50.118;9.900;2023-07-22T06:46:26;5.15;;;4.20;;
17365;SDS011;8800;50.118;9.900;2023-07-22T06:48:54;5.82;;;3.72;;
17365;SDS011;8800;50.118;9.900;2023-07-22T06:51:22;5.15;;;4.20;;
17365;SDS011;8800;50.118;9.900;2023-07-22T06:53:48;7.20;;;3.90;;
17365;SDS011;8800;50.118;9.900;2023-07-22T06:56:15;5.18;;;3.88;;
17365;SDS011;8800;50.118;9.900;2023-07-22T06:58:41;4.07;;;3.63;;
17365;SDS011;8800;50.118;9.900;2023-07-22T07:01:08;4.93;;;3.55;;
17365;SDS011;8800;50.118;9.900;2023-07-22T07:03:34;4.75;;;4.25;;
17365;SDS011;8800;50.118;9.900;2023-07-22T07:06:01;4.68;;;3.75;;
17365;SDS011;8800;50.118;9.900;2023-07-22T07:08:29;5.30;;;4.18;;
17365;SDS011;8800;50.118;9.900;2023-07-22T07:10:58;4.60;;;3.92;;
17365;SDS011;8800;50.118;9.900;2023-07-22T07:13:25;7.43;;;3.83;;
17365;SDS011;8800;50.118;9.900;2023-07-22T07:15:52;4.50;;;3.72;;
17365;SDS011;8800;50.118;9.900;2023-07-22T07:18:18;5.72;;;4.05;;
17365;SDS011;8800;50.118;9.900;2023-07-22T07:20:45;6.10;;;4.70;;
17365;SDS011;8800;50.118;9.900;2023-07-22T07:23:12;7.43;;;4.70;;
17365;SDS011;8800;50.118;9.900;2023-07-22T07:25:40;7.15;;;4.80;;
17365;SDS011;8800;50.118;9.900;2023-07-22T07:28:07;6.00;;;4.20;;
17365;SDS011;8800;50.118;9.900;2023-07-22T07:30:34;6.68;;;4.78;;
17365;SDS011;8800;50.118;9.900;2023-07-22T07:33:00;6.70;;;4.65;;
17365;SDS011;8800;50.118;9.900;2023-07-22T07:35:27;5.10;;;4.22;;
17365;SDS011;8800;50.118;9.900;2023-07-22T07:37:54;6.72;;;4.20;;
17365;SDS011;8800;50.118;9.900;2023-07-22T07:40:20;7.13;;;4.30;;
17365;SDS011;8800;50.118;9.900;2023-07-22T07:42:48;8.05;;;4.50;;
17365;SDS011;8800;50.118;9.900;2023-07-22T07:45:15;6.88;;;4.32;;
17365;SDS011;8800;50.118;9.900;2023-07-22T07:47:41;7.22;;;4.80;;
17365;SDS011;8800;50.118;9.900;2023-07-22T07:50:09;6.72;;;4.03;;
17365;SDS011;8800;50.118;9.900;2023-07-22T07:52:35;7.18;;;4.70;;
17365;SDS011;8800;50.118;9.900;2023-07-22T07:55:04;6.68;;;4.60;;
17365;SDS011;8800;50.118;9.900;2023-07-22T07:57:32;8.38;;;4.78;;
17365;SDS011;8800;50.118;9.900;2023-07-22T07:59:59;6.72;;;4.30;;
17365;SDS011;8800;50.118;9.900;2023-07-22T08:02:26;9.65;;;4.63;;
17365;SDS011;8800;50.118;9.900;2023-07-22T08:04:53;7.35;;;4.25;;
17365;SDS011;8800;50.118;9.900;2023-07-22T08:07:20;5.43;;;3.88;;
17365;SDS011;8800;50.118;9.900;2023-07-22T08:09:46;9.23;;;4.20;;
17365;SDS011;8800;50.118;9.900;2023-07-22T08:12:14;8.02;;;4.22;;
17365;SDS011;8800;50.118;9.900;2023-07-22T08:14:40;7.78;;;4.30;;
17365;SDS011;8800;50.118;9.900;2023-07-22T08:17:08;8.05;;;4.20;;
17365;SDS011;8800;50.118;9.900;2023-07-22T08:19:35;9.40;;;4.25;;
17365;SDS011;8800;50.118;9.900;2023-07-22T08:22:01;7.18;;;4.22;;
17365;SDS011;8800;50.118;9.900;2023-07-22T08:24:28;6.95;;;3.83;;
17365;SDS011;8800;50.118;9.900;2023-07-22T08:26:54;7.43;;;3.95;;
17365;SDS011;8800;50.118;9.900;2023-07-22T08:29:21;5.88;;;3.67;;
17365;SDS011;8800;50.118;9.900;2023-07-22T08:31:49;7.15;;;3.90;;
17365;SDS011;8800;50.118;9.900;2023-07-22T08:34:16;5.03;;;3.28;;
17365;SDS011;8800;50.118;9.900;2023-07-22T08:36:43;8.93;;;3.60;;
17365;SDS011;8800;50.118;9.900;2023-07-22T08:39:10;5.30;;;3.45;;
17365;SDS011;8800;50.118;9.900;2023-07-22T08:41:39;4.35;;;3.35;;
17365;SDS011;8800;50.118;9.900;2023-07-22T08:44:06;6.68;;;3.35;;
17365;SDS011;8800;50.118;9.900;2023-07-22T08:46:34;6.22;;;3.83;;
17365;SDS011;8800;50.118;9.900;2023-07-22T08:49:03;7.70;;;3.50;;
17365;SDS011;8800;50.118;9.900;2023-07-22T08:51:33;6.90;;;3.40;;
17365;SDS011;8800;50.118;9.900;2023-07-22T08:54:02;6.55;;;3.60;;
17365;SDS011;8800;50.118;9.900;2023-07-22T08:56:29;5.13;;;3.67;;
17365;SDS011;8800;50.118;9.900;2023-07-22T08:58:55;6.03;;;3.40;;
17365;SDS011;8800;50.118;9.900;2023-07-22T09:01:22;5.05;;;3.70;;
17365;SDS011;8800;50.118;9.900;2023-07-22T09:03:49;5.13;;;3.53;;
17365;SDS011;8800;50.118;9.900;2023-07-22T09:06:18;5.80;;;3.40;;
17365;SDS011;8800;50.118;9.900;2023-07-22T09:08:46;5.00;;;3.35;;
17365;SDS011;8800;50.118;9.900;2023-07-22T09:11:13;7.95;;;3.80;;
17365;SDS011;8800;50.118;9.900;2023-07-22T09:13:40;6.93;;;3.40;;
17365;SDS011;8800;50.118;9.900;2023-07-22T09:16:08;4.82;;;3.40;;
17365;SDS011;8800;50.118;9.900;2023-07-22T09:18:35;6.68;;;3.50;;
17365;SDS011;8800;50.118;9.900;2023-07-22T09:21:01;7.60;;;3.22;;
17365;SDS011;8800;50.118;9.900;2023-07-22T09:23:31;5.63;;;3.58;;
17365;SDS011;8800;50.118;9.900;2023-07-22T09:26:09;4.70;;;3.05;;
17365;SDS011;8800;50.118;9.900;2023-07-22T09:28:47;6.15;;;3.83;;
17365;SDS011;8800;50.118;9.900;2023-07-22T09:31:13;8.65;;;3.97;;
17365;SDS011;8800;50.118;9.900;2023-07-22T09:33:40;5.38;;;3.67;;
17365;SDS011;8800;50.118;9.900;2023-07-22T09:36:06;10.43;;;3.63;;
17365;SDS011;8800;50.118;9.900;2023-07-22T09:38:33;5.60;;;3.42;;
17365;SDS011;8800;50.118;9.900;2023-07-22T09:41:00;5.45;;;3.97;;
17365;SDS011;8800;50.118;9.900;2023-07-22T09:43:29;5.10;;;4.03;;
17365;SDS011;8800;50.118;9.900;2023-07-22T09:45:56;5.93;;;3.97;;
17365;SDS011;8800;50.118;9.900;2023-07-22T09:48:32;5.80;;;3.78;;
17365;SDS011;8800;50.118;9.900;2023-07-22T09:51:05;6.00;;;3.47;;
17365;SDS011;8800;50.118;9.900;2023-07-22T09:53:31;6.05;;;3.40;;
17365;SDS011;8800;50.118;9.900;2023-07-22T09:56:02;7.15;;;3.65;;
17365;SDS011;8800;50.118;9.900;2023-07-22T09:58:30;4.00;;;2.90;;
17365;SDS011;8800;50.118;9.900;2023-07-22T10:00:57;4.97;;;3.53;;
17365;SDS011;8800;50.118;9.900;2023-07-22T10:03:24;9.18;;;3.50;;
17365;SDS011;8800;50.118;9.900;2023-07-22T10:05:55;4.72;;;2.75;;
17365;SDS011;8800;50.118;9.900;2023-07-22T10:08:22;5.32;;;3.30;;
17365;SDS011;8800;50.118;9.900;2023-07-22T10:10:51;4.97;;;3.00;;
17365;SDS011;8800;50.118;9.900;2023-07-22T10:13:19;5.43;;;3.05;;
17365;SDS011;8800;50.118;9.900;2023-07-22T10:15:47;4.60;;;3.05;;
17365;SDS011;8800;50.118;9.900;2023-07-22T10:18:14;3.92;;;3.00;;
17365;SDS011;8800;50.118;9.900;2023-07-22T10:20:41;5.60;;;3.42;;
17365;SDS011;8800;50.118;9.900;2023-07-22T10:23:09;10.55;;;3.10;;
17365;SDS011;8800;50.118;9.900;2023-07-22T10:25:39;3.65;;;2.80;;
17365;SDS011;8800;50.118;9.900;2023-07-22T10:28:05;5.65;;;3.08;;
17365;SDS011;8800;50.118;9.900;2023-07-22T10:30:32;3.97;;;2.65;;
17365;SDS011;8800;50.118;9.900;2023-07-22T10:33:00;3.85;;;2.60;;
17365;SDS011;8800;50.118;9.900;2023-07-22T10:35:34;5.47;;;2.90;;
17365;SDS011;8800;50.118;9.900;2023-07-22T10:38:08;5.75;;;2.83;;
17365;SDS011;8800;50.118;9.900;2023-07-22T10:40:44;8.30;;;2.90;;
17365;SDS011;8800;50.118;9.900;2023-07-22T10:43:11;4.85;;;2.60;;
17365;SDS011;8800;50.118;9.900;2023-07-22T10:45:39;4.93;;;3.00;;
17365;SDS011;8800;50.118;9.900;2023-07-22T10:48:08;5.15;;;2.63;;
17365;SDS011;8800;50.118;9.900;2023-07-22T10:50:39;4.30;;;2.78;;
17365;SDS011;8800;50.118;9.900;2023-07-22T10:53:06;4.40;;;2.78;;
17365;SDS011;8800;50.118;9.900;2023-07-22T10:55:32;4.63;;;2.35;;
17365;SDS011;8800;50.118;9.900;2023-07-22T10:58:04;3.38;;;2.55;;
17365;SDS011;8800;50.118;9.900;2023-07-22T11:00:31;5.13;;;2.63;;
17365;SDS011;8800;50.118;9.900;2023-07-22T11:03:11;4.28;;;2.67;;
17365;SDS011;8800;50.118;9.900;2023-07-22T11:05:48;4.38;;;2.47;;
17365;SDS011;8800;50.118;9.900;2023-07-22T11:08:15;4.53;;;2.95;;
17365;SDS011;8800;50.118;9.900;2023-07-22T11:10:54;4.78;;;2.90;;
17365;SDS011;8800;50.118;9.900;2023-07-22T11:13:26;5.25;;;2.80;;
17365;SDS011;8800;50.118;9.900;2023-07-22T11:15:53;3.05;;;2.22;;
17365;SDS011;8800;50.118;9.900;2023-07-22T11:18:32;3.40;;;2.60;;
17365;SDS011;8800;50.118;9.900;2023-07-22T11:21:02;6.50;;;3.22;;
17365;SDS011;8800;50.118;9.900;2023-07-22T11:23:35;4.43;;;3.08;;
17365;SDS011;8800;50.118;9.900;2023-07-22T11:26:02;4.88;;;2.97;;
17365;SDS011;8800;50.118;9.900;2023-07-22T11:28:29;5.47;;;3.15;;
17365;SDS011;8800;50.118;9.900;2023-07-22T11:30:59;6.55;;;3.17;;
17365;SDS011;8800;50.118;9.900;2023-07-22T11:33:38;3.30;;;2.45;;
17365;SDS011;8800;50.118;9.900;2023-07-22T11:36:06;4.03;;;2.60;;
17365;SDS011;8800;50.118;9.900;2023-07-22T11:38:33;4.97;;;2.67;;
17365;SDS011;8800;50.118;9.900;2023-07-22T11:41:00;3.30;;;2.50;;
17365;SDS011;8800;50.118;9.900;2023-07-22T11:43:26;5.55;;;2.80;;
17365;SDS011;8800;50.118;9.900;2023-07-22T11:45:53;3.72;;;2.58;;
17365;SDS011;8800;50.118;9.900;2023-07-22T11:48:23;4.30;;;2.55;;
17365;SDS011;8800;50.118;9.900;2023-07-22T11:50:51;4.10;;;2.60;;
17365;SDS011;8800;50.118;9.900;2023-07-22T11:53:17;4.80;;;2.60;;
17365;SDS011;8800;50.118;9.900;2023-07-22T11:55:44;3.72;;;2.78;;
17365;SDS011;8800;50.118;9.900;2023-07-22T11:58:10;3.80;;;2.50;;
17365;SDS011;8800;50.118;9.900;2023-07-22T12:00:37;4.25;;;2.88;;
17365;SDS011;8800;50.118;9.900;2023-07-22T12:03:08;9.60;;;2.80;;
17365;SDS011;8800;50.118;9.900;2023-07-22T12:05:36;3.33;;;2.42;;
17365;SDS011;8800;50.118;9.900;2023-07-22T12:08:05;4.25;;;2.92;;
17365;SDS011;8800;50.118;9.900;2023-07-22T12:10:32;7.70;;;2.78;;
17365;SDS011;8800;50.118;9.900;2023-07-22T12:13:00;6.85;;;3.00;;
17365;SDS011;8800;50.118;9.900;2023-07-22T12:15:27;5.00;;;2.67;;
17365;SDS011;8800;50.118;9.900;2023-07-22T12:17:54;5.88;;;3.00;;
17365;SDS011;8800;50.118;9.900;2023-07-22T12:20:23;5.43;;;2.90;;
17365;SDS011;8800;50.118;9.900;2023-07-22T12:22:50;6.47;;;2.85;;
17365;SDS011;8800;50.118;9.900;2023-07-22T12:25:18;6.15;;;2.60;;
17365;SDS011;8800;50.118;9.900;2023-07-22T12:27:44;4.93;;;2.88;;
17365;SDS011;8800;50.118;9.900;2023-07-22T12:30:11;4.78;;;2.67;;
17365;SDS011;8800;50.118;9.900;2023-07-22T12:32:37;5.07;;;3.08;;
17365;SDS011;8800;50.118;9.900;2023-07-22T12:35:08;6.22;;;2.85;;
17365;SDS011;8800;50.118;9.900;2023-07-22T12:37:34;4.03;;;2.67;;
17365;SDS011;8800;50.118;9.900;2023-07-22T12:40:01;4.70;;;2.63;;
17365;SDS011;8800;50.118;9.900;2023-07-22T12:42:31;4.78;;;2.92;;
17365;SDS011;8800;50.118;9.900;2023-07-22T12:44:58;3.38;;;2.63;;
17365;SDS011;8800;50.118;9.900;2023-07-22T12:47:25;5.07;;;2.50;;
17365;SDS011;8800;50.118;9.900;2023-07-22T12:49:52;5.55;;;3.10;;
17365;SDS011;8800;50.118;9.900;2023-07-22T12:52:18;4.40;;;2.70;;
17365;SDS011;8800;50.118;9.900;2023-07-22T12:54:45;4.22;;;2.40;;
17365;SDS011;8800;50.118;9.900;2023-07-22T12:57:11;5.03;;;2.65;;
17365;SDS011;8800;50.118;9.900;2023-07-22T12:59:39;3.13;;;2.47;;
17365;SDS011;8800;50.118;9.900;2023-07-22T13:02:06;4.75;;;2.38;;
17365;SDS011;8800;50.118;9.900;2023-07-22T13:04:33;4.00;;;2.40;;
17365;SDS011;8800;50.118;9.900;2023-07-22T13:06:59;3.10;;;2.40;;
17365;SDS011;8800;50.118;9.900;2023-07-22T13:09:27;4.25;;;2.78;;
17365;SDS011;8800;50.118;9.900;2023-07-22T13:11:53;5.95;;;2.90;;
17365;SDS011;8800;50.118;9.900;2023-07-22T13:14:19;4.90;;;2.58;;
17365;SDS011;8800;50.118;9.900;2023-07-22T13:16:47;3.13;;;2.42;;
17365;SDS011;8800;50.118;9.900;2023-07-22T13:19:14;5.28;;;2.72;;
17365;SDS011;8800;50.118;9.900;2023-07-22T13:21:40;4.95;;;2.60;;
17365;SDS011;8800;50.118;9.900;2023-07-22T13:24:07;5.47;;;2.70;;
17365;SDS011;8800;50.118;9.900;2023-07-22T13:26:34;4.25;;;2.90;;
17365;SDS011;8800;50.118;9.900;2023-07-22T13:29:01;3.47;;;2.65;;
17365;SDS011;8800;50.118;9.900;2023-07-22T13:31:27;4.40;;;2.67;;
17365;SDS011;8800;50.118;9.900;2023-07-22T13:33:55;3.67;;;2.40;;
17365;SDS011;8800;50.118;9.900;2023-07-22T13:36:24;5.82;;;2.60;;
17365;SDS011;8800;50.118;9.900;2023-07-22T13:38:50;4.18;;;2.70;;
17365;SDS011;8800;50.118;9.900;2023-07-22T13:41:17;4.18;;;2.40;;
17365;SDS011;8800;50.118;9.900;2023-07-22T13:43:43;3.13;;;2.30;;
17365;SDS011;8800;50.118;9.900;2023-07-22T13:46:11;4.03;;;2.70;;
17365;SDS011;8800;50.118;9.900;2023-07-22T13:48:38;3.05;;;2.60;;
17365;SDS011;8800;50.118;9.900;2023-07-22T13:51:06;5.93;;;2.72;;
17365;SDS011;8800;50.118;9.900;2023-07-22T13:53:33;4.70;;;2.38;;
17365;SDS011;8800;50.118;9.900;2023-07-22T13:55:59;3.63;;;2.28;;
17365;SDS011;8800;50.118;9.900;2023-07-22T13:58:26;5.03;;;2.45;;
17365;SDS011;8800;50.118;9.900;2023-07-22T14:00:53;4.65;;;2.70;;
17365;SDS011;8800;50.118;9.900;2023-07-22T14:03:19;4.00;;;2.20;;
17365;SDS011;8800;50.118;9.900;2023-07-22T14:05:46;4.72;;;2.50;;
17365;SDS011;8800;50.118;9.900;2023-07-22T14:08:14;3.05;;;2.25;;
17365;SDS011;8800;50.118;9.900;2023-07-22T14:10:40;4.53;;;2.15;;
17365;SDS011;8800;50.118;9.900;2023-07-22T14:13:07;5.07;;;2.20;;
17365;SDS011;8800;50.118;9.900;2023-07-22T14:15:33;3.45;;;2.45;;
17365;SDS011;8800;50.118;9.900;2023-07-22T14:18:01;6.32;;;2.53;;
17365;SDS011;8800;50.118;9.900;2023-07-22T14:20:28;6.15;;;2.65;;
17365;SDS011;8800;50.118;9.900;2023-07-22T14:22:57;4.72;;;2.13;;
17365;SDS011;8800;50.118;9.900;2023-07-22T14:25:25;3.35;;;2.17;;
17365;SDS011;8800;50.118;9.900;2023-07-22T14:27:51;5.00;;;2.75;;
17365;SDS011;8800;50.118;9.900;2023-07-22T14:30:18;3.75;;;2.67;;
17365;SDS011;8800;50.118;9.900;2023-07-22T14:32:44;3.80;;;2.28;;
17365;SDS011;8800;50.118;9.900;2023-07-22T14:35:11;3.08;;;2.33;;
17365;SDS011;8800;50.118;9.900;2023-07-22T14:37:37;3.28;;;2.65;;
17365;SDS011;8800;50.118;9.900;2023-07-22T14:40:05;3.10;;;2.20;;
17365;SDS011;8800;50.118;9.900;2023-07-22T14:42:35;4.45;;;2.63;;
17365;SDS011;8800;50.118;9.900;2023-07-22T14:45:02;4.55;;;2.60;;
17365;SDS011;8800;50.118;9.900;2023-07-22T14:47:28;3.78;;;2.20;;
17365;SDS011;8800;50.118;9.900;2023-07-22T14:49:55;3.40;;;2.30;;
17365;SDS011;8800;50.118;9.900;2023-07-22T14:52:23;4.43;;;2.50;;
17365;SDS011;8800;50.118;9.900;2023-07-22T14:54:49;11.77;;;3.22;;
17365;SDS011;8800;50.118;9.900;2023-07-22T14:57:16;5.18;;;3.03;;
17365;SDS011;8800;50.118;9.900;2023-07-22T14:59:44;3.10;;;2.50;;
17365;SDS011;8800;50.118;9.900;2023-07-22T15:02:11;3.78;;;2.35;;